KBIF/BIF METAR and TAF weather

Enter ICAO airport designator
Station Type Date Time Source
KBIF METAR 2020/09/20 13:58 UTC NOAA

KBIF 201358Z AUTO 04003KT 10SM CLR 16/08 A3019 RMK AO2 SLP169 T01620078 $


Station Type Date Time Source
KBIF Decoded METAR 2020/09/20 13:58 UTC NOAA

Biggs Army Air Field / Ft. Bliss, TX, United States (KBIF) 31-51N 106-23W
Sep 20, 2020 - 09:58 AM EDT / 2020.09.20 1358 UTC
Wind: from the NE (040 degrees) at 3 MPH (3 KT):0
Visibility: 10 mile(s):0
Sky conditions: clear
Temperature: 61.2 F (16.2 C)
Dew Point: 46.0 F (7.8 C)
Relative Humidity: 57%
Pressure (altimeter): 30.19 in. Hg (1022 hPa)
ob: KBIF 201358Z AUTO 04003KT 10SM CLR 16/08 A3019 RMK AO2 SLP169 T01620078
cycle: 14

Station Type Date Time Source
KBIF TAF 2020/09/20 14:05 UTC NOAA

TAF KBIF 201400Z 2014/2120 VRB05KT 9999 SKC QNH3006INS TX31/2100Z TN13/2112Z

Example: see airport list